Hang Gliding World Championship 2015

2015-02-28 to 2015-03-13

Overall T7

2015-03-09 T7

Race to Goal 107.2 km

official

No Leg Dist. Id Radius Open Close Coordinates Altitude
1 0.0 km D01235 1 m 12:30 14:30 Lat: 19.062000 Lon: -100.090500 m
2 SS 11.5 km B01119 14000 m 13:45 18:00 Lat: 18.942167 Lon: -100.297500 m
3 20.5 km B01119 5000 m 13:45 18:00 Lat: 18.942167 Lon: -100.297500 m
4 60.2 km B09334 400 m 13:45 18:00 Lat: 19.186667 Lon: -99.955833 m
5 66.7 km B07270 1000 m 13:45 18:00 Lat: 19.118500 Lon: -99.974500 m
6 97.6 km B15257 400 m 13:45 18:00 Lat: 19.394167 Lon: -100.065833 m
7 ES 106.6 km A04257 1000 m 13:45 18:00 Lat: 19.443000 Lon: -99.982333 m
8 107.2 km A04257 400 m 13:45 18:00 Lat: 19.443000 Lon: -99.982333 m
StartGate(s): 13:45, 14:15

# Id Name Nat Glider Sponsor SS ES Time km/h Distance Dist.
Points
Lead.
Points
Time
Points
Arr.
Pos.
Points
Total
1 141 Christian CIECH M ITA Icaro 2000 Laminar AeCI/Icaro 2000/Woody Valley 13:45:00 15:15:42 01:30:42 62.9 107.24 388.3 94.6 378.3 67.6 929
2 122 Roland WOEHRLE M GER Moyes RX 3.5 Sparkasse Haslach/Zell; Skyline 13:45:00 15:17:46 01:32:46 61.5 107.24 388.3 82.8 343.4 64.4 879
3 182 Jonas LOBITZ M NZL Moyes RS 4 Moyes, Warren Windsports 13:45:00 15:17:50 01:32:50 61.5 107.24 388.3 79.4 342.7 61.4 872
4 183 Glen MCFARLANE M AUS Wills Wing T2C Willswings 13:45:00 15:18:04 01:33:04 61.3 107.24 388.3 77.9 340.1 58.5 865
5 136 Grant CROSSINGHAM M GBR Moyes RX 3.5 Luisa Morales Rueda 13:45:00 15:18:24 01:33:24 61.1 107.24 388.3 76.0 336.6 55.7 857
6 167 Boisselier ANTOINE M FRA Icaro 2000 Laminar Icaro Skyline 13:45:00 15:19:18 01:34:18 60.5 107.24 388.3 80.8 327.8 53.0 850
7 137 Filippo OPPICI M ITA Wills Wing T2C Wills Wing 13:45:00 15:19:27 01:34:27 60.4 107.24 388.3 79.0 326.4 50.4 844
7 171 Zin PIERO M FRA Icaro 2000 Laminar Z9 14.1 no sponsors 13:45:00 15:19:32 01:34:32 60.4 107.24 388.3 81.6 325.6 48.0 844
9 159 Christian VOIBLET M SUI Aeros Combat C Flytec 13:45:00 15:22:28 01:37:28 58.6 107.24 388.3 79.6 301.4 45.7 815
10 144 Carl WALLBANK M GBR Moyes RX 3.5 Moyes UK 13:45:00 15:22:38 01:37:38 58.5 107.24 388.3 69.9 300.1 43.5 802
11 53 Seppi Salvenmoser M AUT Moyes RX 3.5 RED BULL 13:45:00 15:22:40 01:37:40 58.4 107.24 388.3 65.3 299.8 41.3 795
12 101 Robin HAMILTON M USA Moyes RX 3.5 NAA 13:45:00 15:23:53 01:38:53 57.7 107.24 388.3 74.3 291.0 39.3 793
13 107 Alonzi MARIO M FRA Aeros Combat C ARMEE DE L'AIR 13:45:00 15:25:37 01:40:37 56.7 107.24 388.3 66.7 279.0 37.4 771
14 176 Manfred RUHMER M AUT Icaro 2000 Laminar Icaro2000, Woody Valley, Bräuniger 13:45:00 15:26:29 01:41:29 56.2 107.24 388.3 66.3 273.3 35.6 764
15 108 Aldo ROHLFS M MEX Wills Wing T2C 144 AMEX 13:45:00 15:26:40 01:41:40 56.1 107.24 388.3 65.3 272.1 33.9 760
16 197 Franz HERRMANN M SUI Aeros Combat Aeros 13:45:00 15:27:12 01:42:12 55.8 107.24 388.3 71.0 268.7 30.7 759
17 189 Petr BENEŠ M CZE Aeros Combat 09 LAA CR 13:45:00 15:27:03 01:42:03 55.9 107.24 388.3 64.8 269.7 32.3 755
18 106 Jonny DURAND M AUS Moyes RX 3.5 Moyes Red Bull Blu Eye 13:45:00 15:28:13 01:43:13 55.3 107.24 388.3 65.5 262.4 29.3 746
19 156 Suan SELENATI M ITA Wills Wing T2C FRIULI VENEZIA GIULIA/WOODY VALLEY/W W 13:45:00 15:30:12 01:45:12 54.3 107.24 388.3 71.7 250.4 25.5 736
20 187 Dan VYHNALIK M CZE Aeros Combat 13.5 GT LAA CR 13:45:00 15:28:55 01:43:55 54.9 107.24 388.3 60.3 258.1 27.9 735
21 10 Rodolfo GOTÉS M MEX Wills Wing T2C Sensual Tea vuelolibre.mx 13:45:00 15:29:20 01:44:20 54.7 107.24 388.3 62.5 255.6 26.7 733
22 139 Tullio GERVASONI M ITA Wills Wing T2C GAP 13:45:00 15:31:35 01:46:35 53.6 107.24 388.3 61.6 242.4 24.3 717
23 105 Zac MAJORS M USA Wills Wing T2C Wills Wing, Flytec 13:45:00 15:31:42 01:46:42 53.5 107.24 388.3 62.3 241.7 23.3 716
24 68 Joerg BAJEWSKI M GER Wills Wing T2C TIMEZONE, ANSMANN 13:45:00 15:31:57 01:46:57 53.4 107.24 388.3 61.0 240.3 22.3 712
25 148 Balazs UJHELYI M HUN Moyes RS 4 no 13:45:00 15:34:21 01:49:21 52.2 107.24 388.3 68.2 227.0 19.8 703
26 45 Daniel VELEZ M COL Wills Wing T2C FEDEAEREOS 13:45:00 15:33:18 01:48:18 52.7 107.24 388.3 53.3 232.8 21.4 696
27 160 Derreck TURNER M USA Moyes RX5 Fl Ridge flight park 13:45:00 15:33:27 01:48:27 52.6 107.24 388.3 51.5 232.0 20.6 692
28 135 Reisinger ROBERT M AUT Wills Wing T2C willswing 13:45:00 15:35:00 01:50:00 51.9 107.24 388.3 56.0 223.6 19.1 687
29 132 Yuji SUZUKI M JPN Moyes RX 3.5 WINDSPORT 13:45:00 15:36:22 01:51:22 51.3 107.24 388.3 54.3 216.3 17.8 677
29 198 Attila BERTOK M HUN Moyes RX5 Moyes Delta Gliders 13:45:00 15:35:18 01:50:18 51.7 107.24 388.3 47.8 222.0 18.4 677
29 71 Achim VOLLMER M GER Aeros Combat 12.7 GT 13:45:00 15:36:32 01:51:32 51.2 107.24 388.3 56.1 215.5 17.2 677
32 134 André DJAMARANI M GER Aeros Combat 13.5 GT DHV, Addidas, Skyline, Bräuniger 13:45:00 15:38:53 01:53:53 50.1 107.24 388.3 47.6 203.4 16.7 656
33 39 Erick SALGADO M MEX Moyes Litespeed S 4.5 CASA MADERO 13:45:00 15:41:16 01:56:16 49.1 107.24 388.3 58.3 191.6 15.9 654
34 31 David SEGURA M MEX Moyes RX5 no 13:45:00 15:41:01 01:56:01 49.2 107.24 388.3 46.1 192.9 16.3 644
35 178 Graham PHIPPS M GBR Wills Wing T2C 144 Cloud 9 Hang Gliding & Paragliding 13:45:00 15:45:31 02:00:31 47.4 107.24 388.3 42.8 171.5 15.2 618
36 152 Elek CZIGLER M HUN Aeros Combat GT ORIAS 13:45:00 15:45:26 02:00:26 47.4 107.24 388.3 41.7 171.9 15.5 617
37 80 Francois ISOARD M FRA Wills Wing T2C FFVL 13:45:00 15:52:05 02:07:05 44.9 107.24 388.3 44.1 142.2 14.9 590
38 79 Laurent THEVENOT M FRA Wills Wing T2C lamouette aerobags 13:45:00 15:52:42 02:07:42 44.7 107.24 388.3 46.2 139.5 14.7 589
39 119 Steven BLACKLER M GBR Moyes RS 3.5 nil 13:45:00 16:12:58 02:27:58 38.6 107.24 388.3 33.5 58.8 14.1 495
40 91 Daniel MARTÍN MOTA M ESP Wills Wing T2C - 13:45:00 16:11:15 02:26:15 39.0 107.24 388.3 26.4 65.2 14.4 494
41 30 Alexandre MENARD M CAN Wills Wing T2C None 13:45:00 16:12:29 02:27:29 38.7 107.24 388.3 17.6 60.6 14.2 481
42 192 Manuel RIVERO LASCURAIN M Wills Wing T2C None 13:45:00 16:21:56 02:36:56 36.4 107.24 388.3 15.8 26.2 13.8 444
43 27 Johnny NILSSEN M NOR Airborne Rev 2 None 13:45:00 16:23:10 02:38:10 36.1 107.24 388.3 13.5 21.9 13.7 437
44 151 Davide GUIDUCCI M ITA Icaro 2000 Laminar Woody Walley 13:45:00 103.73 381.2 55.1 436
45 110 Rodrigo (noni) ALVA GOMEZ M MEX Wills Wing T2C VUELOLIBRE.MX 13:45:00 16:21:24 02:36:24 36.5 107.24 388.3 0.6 28.1 13.9 431
46 180 Trent BROWN M AUS Moyes RX 3.5 Moyes Delta Gliders 13:45:00 105.06 384.4 33.7 418
47 172 Christian POLLET M FRA Aeros Combat GT No 13:45:00 16:42:01 02:57:01 32.2 107.24 388.3 13.6 402
47 92 Antonio José LETÓN M ESP Aeros Combat GT lc arquitectos 13:45:00 16:54:06 03:09:06 30.2 107.24 388.3 13.6 402
49 146 Beat Howald M SUI Aeros Combat 12.7 C ROHN Qualität beim Strom 13:45:00 101.33 372.5 26.7 399
50 195 Francoise DIEUZEIDE-BANET F Moyes RX3 no 13:45:00 101.15 371.8 25.6 397
51 168 Joel MIRÓN DE SOTO M Wills Wing T2C Zenith Aventura 13:45:00 103.71 381.2 10.5 392
52 117 Fábio THOMAZ M BRA Moyes RX5 www.rooasadelta.com.br 13:45:00 97.02 347.8 37.4 385
53 29 Pedro Alejandro MONTES GENTNER M MEX Aeros Combat GT Colima 13:45:00 96.88 346.9 37.4 384
54 191 Vlastimil BARTAS M CZE Aeros Combat GT LAA Czech Republic 13:45:00 97.53 350.8 21.6 372
55 47 Pedro L GARCIA M ESP Wills Wing T2C Wills Wing - Juaki Air 14:15:00 100.43 368.3 368
55 70 Bruce BARMAKIAN M USA ? ? NA 14:15:00 100.45 368.4 368
57 69 Gerd DÖNHUBER M GER Moyes RX 3.5 Skyline Flightgear 13:45:00 92.75 322.8 28.6 351
58 138 Christian PREININGER M AUT Icaro 2000 Laminar Icaro 2000 13:45:00 92.47 321.4 26.9 348
59 123 Walter MAYER M AUT Moyes RX4 T-WM 13:45:00 92.65 322.3 14.1 336
59 174 Steve BLENKINSOP M AUS Moyes RX 3.5 Moyes Delta Gliders 13:45:00 91.60 316.0 19.9 336
61 133 Akira MUTAZONO M JPN Aeros Combat GT noe 13:45:00 91.70 316.8 11.2 328
62 177 Guy HUBBARD M AUS Moyes RS 4 Moyes 14:15:00 93.25 325.1 325
63 147 Fredy BIRCHER M SUI Moyes RX 3.5 SHV 13:45:00 87.56 289.5 18.5 308
64 109 Matt BARKER M USA Wills Wing T2C Wills Wing 13:45:00 88.24 294.1 12.7 307
65 113 Max TURIACO M BRA Wills Wing T2C Maxflyrio 13:45:00 87.34 288.0 13.7 302
66 154 Shigeto ISHIZAKA M Wills Wing T2C None 13:45:00 88.97 298.5 299
67 131 Shogo OTA M JPN Aeros Combat GT nissei 13:45:00 84.03 265.6 9.2 275
68 127 Corinna SCHWIEGERSHAUSEN F GER Moyes RX3 Red Bull, adidas, Moyes, Icebreaker, Flytec, W 13:45:00 84.12 266.0 266
69 165 Yon BÁRCENA M Wills Wing T2C _ 13:45:00 82.83 258.9 5.6 265
70 9 Gennadiy KHRAMOV M RUS Wills Wing T2C Deus 13:45:00 83.00 260.0 260
71 40 John THEORET M CAN Wills Wing T2C none 13:45:00 77.45 230.9 231
72 57 Takashi SUNAMA M JPN Aeros Combat GT - 13:45:00 76.37 226.1 226
73 102 Krzysztof GRZYB M USA Moyes RX 3.5 Moyes, QuestLift, CS LLc 13:45:00 73.21 215.6 216
74 86 Jose Maria IRIARTE M ESP Aeros Combat 12.4 GT españa 13:45:00 73.04 215.0 215
75 150 Yoshikatsu TONOMURA M JPN Moyes RX3 none 13:45:00 61.89 181.8 182
76 140 Bill SODERQUIST M Moyes RS 3.5 Free Flight Parachutes 13:45:00 59.96 177.2 177
76 129 Hiroshi ONUMA M JPN Icaro 2000 Laminar ? 13:45:00 59.80 176.8 177
78 169 Dale REGEHR M CAN Moyes RX4 Na 13:45:00 59.14 174.4 174
78 28 Tormod HELGESEN M NOR Moyes RX4 None 13:45:00 59.06 174.0 174
80 93 Alvaro IDÍGORAS MOLINA M ESP Wills Wing T2C 144 Juakiair 13:45:00 50.20 138.4 138
81 166 Alain WOEFFRAY M SUI Wills Wing T2C - 13:45:00 48.74 135.0 135
82 193 Günther TSCHURNIG M AUT Icaro 2000 Laminar Z9 Wirth Austria 13:45:00 48.35 133.8 134
83 121 Gordon RIGG M GBR Moyes RX 3.5 Open to Offers 13:45:00 44.45 119.6 120
84 114 Glauco PINTO M BRA Icaro 2000 Laminar ABVL/X-WINGS 13:45:00 41.89 109.4 109
85 118 Wayne THOMPSON M GBR ? ? Anyone who offers 14:15:00 38.45 98.2 98
86 155 Nobuhiro OKADA M Wills Wing T2 nothing 13:45:00 32.09 79.6 80
87 190 Jesus Maria HERNANDO M ESP Wills Wing T2C NO 13:45:00 31.98 79.3 79
88 164 Nils VESK M AUS Moyes RX 3.5 my savings account 13:45:00 30.62 74.7 75
89 158 Eduardo PANUCO M Aeros Combat 13.5 GT SMG 13:45:00 15.08 34.8 35
90 112 Elmar CHRISTL M LIE Moyes RX4 Christl SpiceTechnologie 5.00 12.2 12

Pilots absent from task (ABS)

Id Name
48 Claudia MEJIA DE LA PAVA
116 Eduardo OLIVEIRA
142 Peter NEUENSCHWANDER
149 Valentino BAÙ
188 Jiri GUT

Pilots not yet processed (NYP)

Id Name

Task statistics

param value
ss_distance 95.127
task_distance 107.24
launch_to_ess_distance 106.64
no_of_pilots_present 90
no_of_pilots_flying 90
no_of_pilots_lo 44
no_of_pilots_reaching_nom_dist 72
no_of_pilots_reaching_es 46
no_of_pilots_reaching_goal 46
sum_flown_distance 8174.062
best_dist 107.24
best_time 1.51166666666667
worst_time 3.15166666666667
no_of_pilots_in_competition 95
no_of_pilots_landed_before_stop 0
sum_dist_over_min 7717.676
sum_real_dist_over_min 7724.062
sum_flown_distances 8174.062
best_real_dist 107.24
last_start_time 2015-03-09T14:15:00-06:00
first_start_time 2015-03-09T13:45:00-06:00
first_finish_time 2015-03-09T15:15:42-06:00
max_time_to_get_time_points 2.74116520943387
no_of_pilots_with_time_points 44
goalratio 0.511111111111111
arrival_weight 0.072735170096022
departure_weight 0
leading_weight 0.101829238134431
time_weight 0.407316952537723
distance_weight 0.418118639231824
smallest_leading_coefficient 1.48128772998657
available_points_distance 388.333257581372
available_points_time 378.301047132681
available_points_departure 0
available_points_leading 94.5752617831703
available_points_arrival 67.5537584165502
time_validity 0.928763324913773
launch_validity 1
distance_validity 1
stop_validity 1
day_quality 0.928763324913773
ftv_day_validity 0.928763324913773
time_points_stop_correction 0

Scoring formula settings

param value
id GAP2014
min_dist 5
nom_dist 75
nom_time 2
nom_launch 0.96
nom_goal 0.25
bonus_gr 5
jump_the_gun_factor 3
jump_the_gun_max 900
normalize_1000_before_day_quality 0
time_points_if_not_in_goal 0
use_1000_points_for_max_day_quality 0
use_arrival_position_points 1
use_arrival_time_points 0
use_departure_points 0
use_difficulty_for_distance_points 1
use_distance_points 1
use_distance_squared_for_LC 0
use_leading_points 1
use_semi_circle_control_zone_for_goal_line 0
use_time_points 1
min_time_span_for_valid_task 90
score_back_time 0
use_arrival_altitude_points 0
final_glide_decelerator none
no_final_glide_decelerator_reason NA
Report created: 2015-03-11T15:08:51-06:00